createdAt,value
2023-05-24T00:01:25.967Z,16.05
2023-05-24T00:03:54.998Z,10.45
2023-05-24T00:06:23.240Z,11.43
2023-05-24T00:08:50.956Z,15.25
2023-05-24T00:11:19.435Z,12.05
2023-05-24T00:13:47.519Z,10.15
2023-05-24T00:16:15.896Z,12.70
2023-05-24T00:18:47.148Z,13.85
2023-05-24T00:21:15.639Z,14.02
2023-05-24T00:23:44.133Z,22.25
2023-05-24T00:26:12.331Z,13.48
2023-05-24T00:28:44.419Z,13.20
2023-05-24T00:31:12.507Z,11.00
2023-05-24T00:33:40.196Z,10.13
2023-05-24T00:36:08.247Z,14.70
2023-05-24T00:38:36.048Z,13.85
2023-05-24T00:41:04.237Z,10.90
2023-05-24T00:43:31.899Z,12.10
2023-05-24T00:46:22.623Z,10.18
2023-05-24T00:48:51.197Z,12.75
2023-05-24T00:51:19.511Z,11.35
2023-05-24T00:53:49.221Z,13.95
2023-05-24T00:56:18.347Z,11.10
2023-05-24T00:58:47.082Z,12.75
2023-05-24T01:01:15.241Z,10.48
2023-05-24T01:03:43.524Z,11.50
2023-05-24T01:06:16.136Z,11.10
2023-05-24T01:09:01.089Z,13.00
2023-05-24T01:11:40.218Z,13.30
2023-05-24T01:14:29.326Z,10.13
2023-05-24T01:17:15.117Z,12.10
2023-05-24T01:20:09.089Z,13.27
2023-05-24T01:22:45.803Z,10.75
2023-05-24T01:25:25.645Z,11.80
2023-05-24T01:27:53.902Z,10.18
2023-05-24T01:30:22.084Z,11.43
2023-05-24T01:32:50.200Z,11.20
2023-05-24T01:35:17.946Z,11.32
2023-05-24T01:37:45.957Z,11.43
2023-05-24T01:40:13.935Z,11.23
2023-05-24T01:42:48.270Z,11.45
2023-05-24T01:45:52.657Z,10.18
2023-05-24T01:48:34.661Z,10.23
2023-05-24T01:51:07.813Z,10.10
2023-05-24T01:53:41.671Z,10.32
2023-05-24T01:56:12.396Z,10.82
2023-05-24T01:58:44.042Z,10.40
2023-05-24T02:01:14.203Z,12.48
2023-05-24T02:03:42.415Z,8.20
2023-05-24T02:06:10.900Z,13.75
2023-05-24T02:08:41.039Z,10.77
2023-05-24T02:11:08.853Z,11.65
2023-05-24T02:13:36.825Z,10.50
2023-05-24T02:16:06.499Z,9.45
2023-05-24T02:18:34.989Z,12.60
2023-05-24T02:21:03.784Z,10.68
2023-05-24T02:23:31.853Z,15.60
2023-05-24T02:26:01.462Z,7.90
2023-05-24T02:28:32.350Z,10.95
2023-05-24T02:31:00.266Z,9.73
2023-05-24T02:33:29.904Z,13.50
2023-05-24T02:35:57.932Z,12.23
2023-05-24T02:38:26.553Z,11.23
2023-05-24T02:40:54.354Z,10.68
2023-05-24T02:43:22.543Z,10.88
2023-05-24T02:45:50.458Z,12.77
2023-05-24T02:48:18.670Z,10.18
2023-05-24T02:50:46.423Z,11.55
2023-05-24T02:53:14.629Z,16.10
2023-05-24T02:55:44.079Z,11.18
2023-05-24T02:58:13.702Z,11.85
2023-05-24T03:00:43.113Z,11.32
2023-05-24T03:03:11.519Z,9.85
2023-05-24T03:05:39.327Z,12.43
2023-05-24T03:08:07.972Z,14.35
2023-05-24T03:10:36.460Z,9.13
2023-05-24T03:13:04.494Z,10.27
2023-05-24T03:15:32.500Z,10.93
2023-05-24T03:18:01.014Z,13.32
2023-05-24T03:20:29.037Z,12.43
2023-05-24T03:22:57.100Z,12.65
2023-05-24T03:25:24.790Z,10.85
2023-05-24T03:27:52.875Z,21.48
2023-05-24T03:30:22.271Z,13.25
2023-05-24T03:32:54.952Z,12.05
2023-05-24T03:35:22.686Z,14.32
2023-05-24T03:37:50.929Z,11.60
2023-05-24T03:40:19.002Z,12.05
2023-05-24T03:42:56.453Z,15.82
2023-05-24T03:45:40.182Z,13.57
2023-05-24T03:48:08.699Z,16.02
2023-05-24T03:50:36.475Z,15.30
2023-05-24T03:53:04.775Z,12.18
2023-05-24T03:55:32.619Z,10.20
2023-05-24T03:58:00.700Z,20.85
2023-05-24T04:00:29.281Z,13.25
2023-05-24T04:02:57.601Z,17.67
2023-05-24T04:05:27.311Z,11.30
2023-05-24T04:07:55.695Z,13.95
2023-05-24T04:10:23.556Z,9.85
2023-05-24T04:12:51.647Z,14.50
2023-05-24T04:15:19.500Z,12.48
2023-05-24T04:17:47.855Z,14.27
2023-05-24T04:20:16.934Z,8.80
2023-05-24T04:22:45.019Z,14.70
2023-05-24T04:25:13.104Z,10.52
2023-05-24T04:27:41.375Z,10.52
2023-05-24T04:30:10.505Z,11.52
2023-05-24T04:32:40.692Z,9.48
2023-05-24T04:35:09.665Z,12.40
2023-05-24T04:37:37.827Z,10.25
2023-05-24T04:40:06.225Z,10.82
2023-05-24T04:42:34.651Z,7.95
2023-05-24T04:45:02.451Z,11.40
2023-05-24T04:47:30.603Z,12.02
2023-05-24T04:49:58.342Z,12.05
2023-05-24T04:52:26.638Z,8.63
2023-05-24T04:54:55.593Z,9.50
2023-05-24T04:57:23.910Z,10.80
2023-05-24T04:59:51.677Z,20.50
2023-05-24T05:02:19.862Z,12.25
2023-05-24T05:04:47.786Z,13.02
2023-05-24T05:07:16.046Z,13.13
2023-05-24T05:09:43.805Z,13.00
2023-05-24T05:12:12.893Z,7.93
2023-05-24T05:14:40.581Z,9.27
2023-05-24T05:17:08.836Z,12.27
2023-05-24T05:19:36.514Z,9.10
2023-05-24T05:22:04.598Z,10.20
2023-05-24T05:24:32.374Z,9.05
2023-05-24T05:27:00.806Z,38.75
2023-05-24T05:29:28.631Z,9.20
2023-05-24T05:31:56.802Z,14.07
2023-05-24T05:34:24.509Z,10.77
2023-05-24T05:36:52.568Z,12.35
2023-05-24T05:39:20.534Z,10.93
2023-05-24T05:41:48.527Z,10.38
2023-05-24T05:44:16.339Z,12.05
2023-05-24T05:46:46.402Z,15.65
2023-05-24T05:49:15.393Z,13.18
2023-05-24T05:51:43.421Z,11.63
2023-05-24T05:54:15.470Z,8.90
2023-05-24T05:56:48.264Z,8.77
2023-05-24T05:59:16.622Z,7.53
2023-05-24T06:01:49.270Z,9.93
2023-05-24T06:04:17.858Z,10.90
2023-05-24T06:06:49.659Z,9.23
2023-05-24T06:09:17.989Z,13.75
2023-05-24T06:11:46.064Z,10.50
2023-05-24T06:14:21.367Z,8.70
2023-05-24T06:16:49.499Z,8.63
2023-05-24T06:19:18.293Z,7.95
2023-05-24T06:21:48.311Z,8.32
2023-05-24T06:24:20.653Z,7.22
2023-05-24T06:26:50.882Z,11.52
2023-05-24T06:29:22.667Z,9.30
2023-05-24T06:31:51.313Z,8.93
2023-05-24T06:34:21.542Z,9.25
2023-05-24T06:36:51.323Z,20.50
2023-05-24T06:39:19.908Z,8.95
2023-05-24T06:41:51.215Z,9.93
2023-05-24T06:44:31.914Z,13.82
2023-05-24T06:47:02.963Z,8.95
2023-05-24T06:49:30.776Z,13.60
2023-05-24T06:51:58.940Z,11.93
2023-05-24T06:54:26.825Z,13.20
2023-05-24T06:56:54.799Z,9.25
2023-05-24T06:59:23.506Z,8.70
2023-05-24T07:01:57.416Z,9.77
2023-05-24T07:04:26.211Z,11.82
2023-05-24T07:06:54.238Z,11.38
2023-05-24T07:09:22.371Z,15.25
2023-05-24T07:11:50.469Z,11.80
2023-05-24T07:14:18.298Z,10.40
2023-05-24T07:16:46.940Z,16.10
2023-05-24T07:19:14.769Z,24.63
2023-05-24T07:21:42.713Z,61.33
2023-05-24T07:24:10.899Z,11.90
2023-05-24T07:26:39.477Z,33.72
2023-05-24T07:29:07.273Z,14.15
2023-05-24T07:31:35.437Z,20.50
2023-05-24T07:34:03.220Z,14.65
2023-05-24T07:36:34.810Z,50.95
2023-05-24T07:39:06.027Z,16.67
2023-05-24T07:41:34.071Z,12.80
2023-05-24T07:44:01.848Z,31.10
2023-05-24T07:46:29.861Z,11.77
2023-05-24T07:48:57.626Z,23.17
2023-05-24T07:51:26.733Z,55.03
2023-05-24T07:53:54.491Z,13.57
2023-05-24T07:56:23.851Z,16.92
2023-05-24T07:58:51.989Z,11.27
2023-05-24T08:01:21.182Z,8.77
2023-05-24T08:03:49.819Z,9.50
2023-05-24T08:06:18.451Z,10.15
2023-05-24T08:08:47.752Z,9.80
2023-05-24T08:11:16.068Z,9.45
2023-05-24T08:13:45.077Z,6.68
2023-05-24T08:16:13.442Z,7.38
2023-05-24T08:18:41.587Z,14.80
2023-05-24T08:21:09.681Z,6.95
2023-05-24T08:23:37.462Z,8.50
2023-05-24T08:26:05.600Z,7.40
2023-05-24T08:28:33.504Z,9.25
2023-05-24T08:31:01.615Z,8.05
2023-05-24T08:33:29.884Z,13.88
2023-05-24T08:35:58.247Z,13.15
2023-05-24T08:38:26.637Z,9.77
2023-05-24T08:40:54.676Z,10.13
2023-05-24T08:43:23.430Z,23.23
2023-05-24T08:45:53.514Z,11.52
2023-05-24T08:48:22.071Z,9.63
2023-05-24T08:50:50.997Z,9.05
2023-05-24T08:53:21.903Z,12.07
2023-05-24T08:55:53.401Z,73.30
2023-05-24T08:58:21.260Z,10.05
2023-05-24T09:00:49.373Z,13.00
2023-05-24T09:03:18.360Z,7.18
2023-05-24T09:05:46.948Z,7.30
2023-05-24T09:08:18.222Z,9.18
2023-05-24T09:10:54.852Z,6.32
2023-05-24T09:13:26.940Z,9.40
2023-05-24T09:15:55.125Z,9.95
2023-05-24T09:18:23.089Z,12.70
2023-05-24T09:20:51.703Z,6.68
2023-05-24T09:23:19.751Z,13.55
2023-05-24T09:25:49.021Z,7.03
2023-05-24T09:28:18.562Z,8.40
2023-05-24T09:31:03.916Z,8.15
2023-05-24T09:33:34.606Z,7.97
2023-05-24T09:36:04.619Z,10.82
2023-05-24T09:38:32.746Z,11.10
2023-05-24T09:41:02.846Z,7.97
2023-05-24T09:43:31.855Z,11.20
2023-05-24T09:46:02.075Z,13.68
2023-05-24T09:48:30.977Z,12.55
2023-05-24T09:51:11.618Z,10.27
2023-05-24T09:53:44.666Z,13.52
2023-05-24T09:56:13.334Z,10.77
2023-05-24T09:58:42.376Z,10.15
2023-05-24T10:01:12.327Z,9.10
2023-05-24T10:03:52.517Z,8.60
2023-05-24T10:06:21.434Z,8.25
2023-05-24T10:08:50.382Z,13.93
2023-05-24T10:11:19.020Z,8.90
2023-05-24T10:13:48.091Z,8.23
2023-05-24T10:16:17.004Z,14.18
2023-05-24T10:18:44.990Z,5.22
2023-05-24T10:21:13.828Z,7.90
2023-05-24T10:23:49.972Z,5.50
2023-05-24T10:26:19.741Z,8.05
2023-05-24T10:28:55.223Z,6.90
2023-05-24T10:31:28.197Z,10.52
2023-05-24T10:34:06.565Z,7.80
2023-05-24T10:36:37.121Z,10.32
2023-05-24T10:39:08.007Z,10.18
2023-05-24T10:41:42.645Z,13.32
2023-05-24T10:44:18.244Z,10.32
2023-05-24T10:47:13.209Z,5.50
2023-05-24T10:49:52.737Z,10.65
2023-05-24T10:52:21.388Z,11.93
2023-05-24T10:55:09.787Z,12.68
2023-05-24T10:57:39.590Z,7.28
2023-05-24T11:00:34.684Z,10.32
2023-05-24T11:03:11.147Z,8.25
2023-05-24T11:05:59.932Z,6.22
2023-05-24T11:08:35.867Z,9.80
2023-05-24T11:13:43.319Z,16.38
2023-05-24T11:16:31.012Z,16.52
2023-05-24T11:19:04.499Z,10.95
2023-05-24T11:21:32.597Z,13.35
2023-05-24T11:24:01.943Z,15.38
2023-05-24T11:26:29.909Z,10.75
2023-05-24T11:29:02.534Z,15.75
2023-05-24T11:31:32.134Z,13.45
2023-05-24T11:34:01.637Z,12.93
2023-05-24T11:36:30.907Z,14.90
2023-05-24T11:38:58.951Z,12.70
2023-05-24T11:41:26.945Z,10.43
2023-05-24T11:43:54.942Z,17.70
2023-05-24T11:46:23.008Z,8.40
2023-05-24T11:49:00.791Z,10.35
2023-05-24T11:51:30.677Z,17.35
2023-05-24T11:53:59.549Z,10.98
2023-05-24T11:56:33.163Z,17.85
2023-05-24T11:59:12.967Z,10.50
2023-05-24T12:01:40.869Z,12.07
2023-05-24T12:04:10.240Z,11.50
2023-05-24T12:06:43.032Z,11.95
2023-05-24T12:09:16.680Z,11.03
2023-05-24T12:11:47.356Z,10.63
2023-05-24T12:14:34.649Z,10.38
2023-05-24T12:17:02.616Z,10.93
2023-05-24T12:19:35.081Z,9.40
2023-05-24T12:22:08.009Z,10.53
2023-05-24T12:24:37.618Z,11.32
2023-05-24T12:27:09.161Z,13.82
2023-05-24T12:29:40.287Z,6.18
2023-05-24T12:32:13.698Z,14.73
2023-05-24T12:34:44.524Z,10.02
2023-05-24T12:37:13.680Z,8.90
2023-05-24T12:39:43.970Z,7.22
2023-05-24T12:42:16.231Z,16.10
2023-05-24T12:44:45.347Z,11.23
2023-05-24T12:47:13.418Z,10.60
2023-05-24T12:49:41.755Z,6.85
2023-05-24T12:52:09.612Z,11.32
2023-05-24T12:54:37.712Z,10.20
2023-05-24T12:57:05.792Z,11.70
2023-05-24T12:59:34.235Z,13.63
2023-05-24T13:02:02.273Z,20.05
2023-05-24T13:04:33.745Z,15.10
2023-05-24T13:07:03.204Z,19.02
2023-05-24T13:09:31.305Z,22.48
2023-05-24T13:11:59.166Z,12.05
2023-05-24T13:14:27.426Z,17.33
2023-05-24T13:16:55.313Z,11.50
2023-05-24T13:19:23.393Z,13.05
2023-05-24T13:21:51.129Z,16.55
2023-05-24T13:24:20.360Z,12.45
2023-05-24T13:26:48.294Z,10.05
2023-05-24T13:31:47.611Z,10.85
2023-05-24T13:34:15.822Z,12.55
2023-05-24T13:36:45.339Z,13.75
2023-05-24T13:39:16.299Z,15.02
2023-05-24T13:41:45.797Z,9.63
2023-05-24T13:44:15.728Z,8.43
2023-05-24T13:46:44.730Z,8.23
2023-05-24T13:49:12.899Z,12.02
2023-05-24T13:51:40.919Z,12.05
2023-05-24T13:54:09.275Z,11.73
2023-05-24T13:56:37.318Z,10.52
2023-05-24T13:59:06.651Z,10.45
2023-05-24T14:01:37.104Z,11.70
2023-05-24T14:04:06.135Z,11.98
2023-05-24T14:06:34.849Z,12.93
2023-05-24T14:09:02.873Z,9.50
2023-05-24T14:11:31.957Z,9.90
2023-05-24T14:16:31.435Z,8.02
2023-05-24T14:18:59.680Z,12.55
2023-05-24T14:21:27.798Z,12.00
2023-05-24T14:23:55.976Z,7.78
2023-05-24T14:26:24.046Z,11.57
2023-05-24T14:28:55.346Z,8.38
2023-05-24T14:31:24.303Z,6.88
2023-05-24T14:33:52.364Z,10.43
2023-05-24T14:36:20.105Z,10.65
2023-05-24T14:38:48.076Z,5.93
2023-05-24T14:41:16.384Z,8.25
2023-05-24T14:43:44.525Z,9.05
2023-05-24T14:46:12.315Z,11.63
2023-05-24T14:48:41.706Z,9.75
2023-05-24T14:51:09.774Z,7.57
2023-05-24T14:53:37.782Z,11.13
2023-05-24T14:56:07.526Z,11.13
2023-05-24T14:58:36.021Z,8.95
2023-05-24T15:01:03.994Z,12.27
2023-05-24T15:03:32.149Z,7.45
2023-05-24T15:06:00.211Z,7.55
2023-05-24T15:08:28.344Z,13.02
2023-05-24T15:10:58.706Z,8.75
2023-05-24T15:13:27.226Z,14.40
2023-05-24T15:15:56.726Z,10.43
2023-05-24T15:18:27.432Z,10.82
2023-05-24T15:20:56.385Z,22.77
2023-05-24T15:23:25.443Z,8.30
2023-05-24T15:25:53.258Z,7.75
2023-05-24T15:28:21.712Z,9.48
2023-05-24T15:30:50.309Z,11.68
2023-05-24T15:33:18.440Z,9.60
2023-05-24T15:35:46.490Z,13.25
2023-05-24T15:38:17.641Z,15.63
2023-05-24T15:40:46.325Z,13.02
2023-05-24T15:43:15.844Z,13.38
2023-05-24T15:45:44.495Z,12.38
2023-05-24T15:48:13.039Z,12.98
2023-05-24T15:50:53.974Z,14.50
2023-05-24T15:53:29.423Z,11.13
2023-05-24T15:55:57.516Z,10.73
2023-05-24T15:58:25.540Z,12.45
2023-05-24T16:00:54.457Z,16.85
2023-05-24T16:03:22.532Z,13.63
2023-05-24T16:05:50.703Z,11.27
2023-05-24T16:08:18.857Z,17.73
2023-05-24T16:10:46.651Z,23.50
2023-05-24T16:13:14.868Z,18.95
2023-05-24T16:15:42.620Z,16.23
2023-05-24T16:18:10.840Z,17.48
2023-05-24T16:20:39.053Z,17.60
2023-05-24T16:23:07.106Z,15.55
2023-05-24T16:25:34.784Z,19.85
2023-05-24T16:28:03.728Z,14.27
2023-05-24T16:30:31.441Z,16.63
2023-05-24T16:32:59.569Z,14.90
2023-05-24T16:35:27.346Z,20.20
2023-05-24T16:37:56.180Z,13.40
2023-05-24T16:40:23.845Z,17.85
2023-05-24T16:42:53.734Z,16.40
2023-05-24T16:45:21.719Z,24.42
2023-05-24T16:47:49.782Z,20.63
2023-05-24T16:50:17.654Z,19.20
2023-05-24T16:52:45.897Z,19.40
2023-05-24T16:55:14.896Z,24.05
2023-05-24T16:57:43.010Z,16.90
2023-05-24T17:00:11.276Z,18.45
2023-05-24T17:02:39.310Z,19.10
2023-05-24T17:05:07.576Z,20.90
2023-05-24T17:07:35.751Z,22.65
2023-05-24T17:10:03.979Z,19.40
2023-05-24T17:12:31.936Z,22.95
2023-05-24T17:14:59.649Z,19.77
2023-05-24T17:17:27.736Z,23.65
2023-05-24T17:19:55.645Z,23.45
2023-05-24T17:22:23.730Z,18.60
2023-05-24T17:24:51.427Z,25.23
2023-05-24T17:27:22.152Z,21.20
2023-05-24T17:29:50.298Z,23.20
2023-05-24T17:32:18.324Z,20.98
2023-05-24T17:34:46.032Z,20.90
2023-05-24T17:37:14.174Z,18.77
2023-05-24T17:39:41.864Z,18.85
2023-05-24T17:42:09.892Z,17.10
2023-05-24T17:44:37.582Z,20.67
2023-05-24T17:47:05.805Z,16.83
2023-05-24T17:49:33.604Z,18.58
2023-05-24T17:52:02.060Z,19.92
2023-05-24T17:54:29.873Z,16.27
2023-05-24T17:56:58.268Z,21.13
2023-05-24T17:59:26.268Z,21.77
2023-05-24T18:01:54.550Z,21.00
2023-05-24T18:04:22.382Z,18.05
2023-05-24T18:06:50.557Z,18.65
2023-05-24T18:09:18.799Z,22.08
2023-05-24T18:11:46.798Z,21.38
2023-05-24T18:14:14.750Z,19.30
2023-05-24T18:16:43.079Z,21.63
2023-05-24T18:19:10.913Z,17.50
2023-05-24T18:21:38.959Z,28.75
2023-05-24T18:24:07.390Z,31.73
2023-05-24T18:26:35.996Z,22.33
2023-05-24T18:29:03.751Z,16.38
2023-05-24T18:31:32.293Z,18.15
2023-05-24T18:34:01.918Z,18.55
2023-05-24T18:36:33.023Z,20.80
2023-05-24T18:39:00.822Z,22.90
2023-05-24T18:41:29.046Z,23.23
2023-05-24T18:43:56.767Z,17.63
2023-05-24T18:46:26.089Z,19.40
2023-05-24T18:48:54.320Z,20.10
2023-05-24T18:51:22.316Z,22.45
2023-05-24T18:53:51.750Z,19.25
2023-05-24T18:56:19.788Z,21.90
2023-05-24T18:58:49.757Z,18.45
2023-05-24T19:01:18.963Z,19.23
2023-05-24T19:03:46.863Z,23.80
2023-05-24T19:06:15.028Z,19.15
2023-05-24T19:08:42.776Z,30.92
2023-05-24T19:11:11.401Z,18.00
2023-05-24T19:13:40.135Z,16.38
2023-05-24T19:16:08.351Z,22.80
2023-05-24T19:18:36.226Z,21.08
2023-05-24T19:21:04.272Z,25.23
2023-05-24T19:23:32.086Z,21.98
2023-05-24T19:26:00.116Z,27.45
2023-05-24T19:28:27.817Z,24.20
2023-05-24T19:30:55.933Z,24.30
2023-05-24T19:33:24.053Z,21.02
2023-05-24T19:35:52.100Z,19.88
2023-05-24T19:38:20.552Z,18.60
2023-05-24T19:40:48.549Z,17.88
2023-05-24T19:43:16.312Z,18.90
2023-05-24T19:45:44.889Z,21.45
2023-05-24T19:48:12.992Z,22.05
2023-05-24T19:50:40.947Z,21.95
2023-05-24T19:53:09.078Z,19.83
2023-05-24T19:55:36.833Z,18.52
2023-05-24T19:58:04.875Z,19.25
2023-05-24T20:00:32.695Z,20.38
2023-05-24T20:03:01.020Z,19.63
2023-05-24T20:05:28.840Z,19.45
2023-05-24T20:07:56.953Z,19.55
2023-05-24T20:10:24.882Z,25.45
2023-05-24T20:12:52.831Z,21.75
2023-05-24T20:15:29.517Z,19.17
2023-05-24T20:17:58.102Z,19.20
2023-05-24T20:20:28.644Z,25.02
2023-05-24T20:22:56.700Z,25.42
2023-05-24T20:25:25.071Z,24.02
2023-05-24T20:27:53.096Z,20.77
2023-05-24T20:30:20.802Z,21.48
2023-05-24T20:32:49.239Z,23.58
2023-05-24T20:35:17.004Z,21.63
2023-05-24T20:37:44.954Z,22.70
2023-05-24T20:40:17.500Z,21.77
2023-05-24T20:42:45.591Z,24.58
2023-05-24T20:45:13.411Z,22.30
2023-05-24T20:47:41.431Z,25.83
2023-05-24T20:50:09.395Z,18.92
2023-05-24T20:52:37.573Z,21.45
2023-05-24T20:55:05.842Z,22.00
2023-05-24T20:57:34.074Z,21.83
2023-05-24T21:00:01.826Z,22.77
2023-05-24T21:02:30.017Z,22.58
2023-05-24T21:04:58.286Z,21.67
2023-05-24T21:07:26.379Z,26.30
2023-05-24T21:09:54.234Z,22.20
2023-05-24T21:12:22.263Z,21.17
2023-05-24T21:14:50.922Z,23.10
2023-05-24T21:17:18.879Z,24.20
2023-05-24T21:19:46.704Z,22.95
2023-05-24T21:22:15.145Z,22.92
2023-05-24T21:24:42.841Z,24.58
2023-05-24T21:27:11.114Z,25.20
2023-05-24T21:29:41.294Z,20.27
2023-05-24T21:32:09.257Z,24.33
2023-05-24T21:34:37.089Z,24.33
2023-05-24T21:37:05.360Z,24.45
2023-05-24T21:39:33.281Z,22.58
2023-05-24T21:42:02.244Z,24.02
2023-05-24T21:44:30.117Z,21.42
2023-05-24T21:46:58.157Z,24.50
2023-05-24T21:49:27.494Z,21.55
2023-05-24T21:51:55.591Z,24.63
2023-05-24T21:54:23.282Z,24.70
2023-05-24T21:56:51.384Z,29.17
2023-05-24T21:59:19.179Z,23.50
2023-05-24T22:01:48.223Z,24.67
2023-05-24T22:04:16.219Z,22.13
2023-05-24T22:06:45.999Z,25.10
2023-05-24T22:09:13.956Z,23.80
2023-05-24T22:11:42.115Z,24.05
2023-05-24T22:14:10.971Z,22.25
2023-05-24T22:16:39.039Z,24.02
2023-05-24T22:19:18.388Z,26.10
2023-05-24T22:21:50.375Z,25.52
2023-05-24T22:24:18.272Z,25.10
2023-05-24T22:26:47.063Z,27.33
2023-05-24T22:29:14.941Z,24.15
2023-05-24T22:31:43.007Z,25.38
2023-05-24T22:34:13.786Z,29.13
2023-05-24T22:36:42.076Z,32.05
2023-05-24T22:39:10.006Z,30.00
2023-05-24T22:41:37.977Z,27.23
2023-05-24T22:44:05.850Z,28.13
2023-05-24T22:46:33.972Z,25.90
2023-05-24T22:49:03.150Z,24.83
2023-05-24T22:51:31.596Z,30.27
2023-05-24T22:53:59.542Z,31.58
2023-05-24T22:56:27.570Z,29.20
2023-05-24T22:58:55.257Z,33.33
2023-05-24T23:01:23.386Z,30.83
2023-05-24T23:03:51.258Z,31.95
2023-05-24T23:06:21.192Z,31.13
2023-05-24T23:08:49.973Z,29.08
2023-05-24T23:11:18.133Z,34.08
2023-05-24T23:13:45.976Z,26.90
2023-05-24T23:16:18.079Z,34.85
2023-05-24T23:18:46.445Z,29.15
2023-05-24T23:21:14.538Z,31.55
2023-05-24T23:23:42.852Z,34.78
2023-05-24T23:26:10.935Z,29.80
2023-05-24T23:28:38.642Z,29.98
2023-05-24T23:31:06.692Z,30.42
2023-05-24T23:33:34.493Z,31.67
2023-05-24T23:36:02.463Z,32.92
2023-05-24T23:38:30.968Z,35.63
2023-05-24T23:40:59.000Z,33.28
2023-05-24T23:43:26.736Z,32.92
2023-05-24T23:45:54.806Z,36.35
2023-05-24T23:48:22.862Z,32.58
2023-05-24T23:50:54.289Z,37.15
2023-05-24T23:53:22.792Z,35.75
2023-05-24T23:55:50.881Z,35.45
2023-05-24T23:58:18.808Z,37.88
